Decoded Metar for K2C8 ( in ) (IATA:) | Meteo·Mobile Aviation Weather
aviador You're here:

K2C8 Decoded Metar

in
Report Time2019-01-17 23:35:00
UTC Time2019-01-17 23:52:15
Flight Rules vfr VFR
WindCalm
Visibility9999 m
Phenomena:N/A
Clouds:N/A
Expected CloudBase > 1,200 ft AGL from Temp-Dew spread
CeilingNone
Temp-18°C
Dew Point-21°C (78% RH)
AAT-21.6°C
QNH1024 hPa
Raw Report
K2C8 172335Z AUTO 00000KT 10SM CLR M18/M21 A3023 RMK AO2=

Extra information for K2C8:More info

Social comments